createdAt,value
2019-04-28T00:01:43.175Z,9.90
2019-04-28T00:04:12.098Z,10.70
2019-04-28T00:06:41.780Z,11.47
2019-04-28T00:09:11.454Z,10.33
2019-04-28T00:11:41.743Z,11.17
2019-04-28T00:14:11.978Z,12.57
2019-04-28T00:16:41.305Z,12.50
2019-04-28T00:19:11.015Z,12.00
2019-04-28T00:21:46.889Z,12.73
2019-04-28T00:24:25.827Z,12.10
2019-04-28T00:26:58.552Z,10.50
2019-04-28T00:29:37.724Z,9.07
2019-04-28T00:31:57.503Z,9.30
2019-04-28T00:34:26.052Z,7.90
2019-04-28T00:36:56.243Z,9.27
2019-04-28T00:39:24.893Z,9.63
2019-04-28T00:41:53.508Z,9.00
2019-04-28T00:44:23.506Z,11.50
2019-04-28T00:46:52.163Z,10.50
2019-04-28T00:49:23.304Z,10.83
2019-04-28T00:51:52.027Z,12.33
2019-04-28T00:54:21.856Z,10.43
2019-04-28T00:56:51.730Z,10.40
2019-04-28T00:59:21.679Z,11.10
2019-04-28T01:01:52.168Z,10.80
2019-04-28T01:04:21.930Z,11.33
2019-04-28T01:06:51.992Z,10.20
2019-04-28T01:09:21.812Z,11.03
2019-04-28T01:11:51.166Z,9.27
2019-04-28T01:14:21.433Z,9.13
2019-04-28T01:16:51.742Z,8.93
2019-04-28T01:19:22.009Z,9.20
2019-04-28T01:22:10.504Z,8.57
2019-04-28T01:24:40.186Z,8.77
2019-04-28T01:27:30.460Z,8.20
2019-04-28T01:30:07.833Z,9.83
2019-04-28T01:32:50.586Z,9.07
2019-04-28T01:35:20.893Z,8.27
2019-04-28T01:37:50.514Z,7.67
2019-04-28T01:40:20.529Z,7.80
2019-04-28T01:42:49.972Z,7.80
2019-04-28T01:45:20.575Z,7.57
2019-04-28T01:47:50.430Z,7.07
2019-04-28T01:50:20.499Z,8.30
2019-04-28T01:52:49.944Z,8.03
2019-04-28T01:55:20.027Z,6.80
2019-04-28T01:57:49.770Z,8.07
2019-04-28T02:00:25.079Z,8.63
2019-04-28T02:02:50.543Z,10.43
2019-04-28T02:05:19.754Z,9.60
2019-04-28T02:07:50.528Z,12.90
2019-04-28T02:10:21.521Z,9.43
2019-04-28T02:12:50.350Z,9.80
2019-04-28T02:15:20.168Z,11.43
2019-04-28T02:17:51.312Z,10.17
2019-04-28T02:20:20.959Z,13.33
2019-04-28T02:22:57.198Z,11.17
2019-04-28T02:25:25.742Z,13.30
2019-04-28T02:27:57.072Z,10.07
2019-04-28T02:30:40.999Z,19.43
2019-04-28T02:32:54.800Z,16.67
2019-04-28T02:35:23.352Z,12.50
2019-04-28T02:37:51.984Z,12.10
2019-04-28T02:40:20.886Z,12.57
2019-04-28T02:42:51.772Z,8.97
2019-04-28T02:45:21.831Z,13.40
2019-04-28T02:47:52.435Z,12.90
2019-04-28T02:50:25.676Z,17.30
2019-04-28T02:53:01.341Z,14.47
2019-04-28T02:55:31.374Z,14.83
2019-04-28T02:58:01.399Z,13.17
2019-04-28T03:00:31.756Z,14.80
2019-04-28T03:03:01.459Z,11.83
2019-04-28T03:05:30.276Z,16.83
2019-04-28T03:08:01.179Z,17.23
2019-04-28T03:10:31.147Z,15.00
2019-04-28T03:13:01.015Z,15.90
2019-04-28T03:15:30.357Z,27.47
2019-04-28T03:18:01.701Z,26.97
2019-04-28T03:20:30.768Z,16.60
2019-04-28T03:23:00.971Z,21.30
2019-04-28T03:25:47.283Z,22.30
2019-04-28T03:28:23.065Z,31.57
2019-04-28T03:30:54.392Z,54.03
2019-04-28T03:33:26.163Z,20.63
2019-04-28T03:35:55.143Z,49.67
2019-04-28T03:38:27.088Z,49.67
2019-04-28T03:40:55.651Z,22.80
2019-04-28T03:43:24.342Z,25.07
2019-04-28T03:45:57.426Z,32.77
2019-04-28T03:48:26.049Z,41.53
2019-04-28T03:50:54.627Z,26.50
2019-04-28T03:53:23.189Z,34.60
2019-04-28T03:55:51.753Z,67.83
2019-04-28T03:58:23.647Z,66.53
2019-04-28T04:00:50.875Z,119.90
2019-04-28T04:03:20.973Z,97.17
2019-04-28T04:05:50.894Z,62.20
2019-04-28T04:08:20.881Z,46.90
2019-04-28T04:10:51.531Z,47.00
2019-04-28T04:13:24.565Z,95.43
2019-04-28T04:16:10.386Z,85.00
2019-04-28T04:18:43.761Z,36.43
2019-04-28T04:21:12.447Z,46.40
2019-04-28T04:23:41.472Z,45.97
2019-04-28T04:26:11.737Z,18.87
2019-04-28T04:28:41.598Z,27.83
2019-04-28T04:31:10.710Z,26.20
2019-04-28T04:33:41.078Z,36.43
2019-04-28T04:36:11.524Z,51.30
2019-04-28T04:38:43.364Z,21.67
2019-04-28T04:41:11.185Z,18.50
2019-04-28T04:43:41.551Z,25.57
2019-04-28T04:49:13.430Z,31.80
2019-04-28T04:51:43.864Z,17.20
2019-04-28T04:54:12.220Z,16.23
2019-04-28T04:56:40.775Z,14.50
2019-04-28T04:59:10.218Z,13.77
2019-04-28T05:01:43.415Z,15.07
2019-04-28T05:04:29.871Z,15.13
2019-04-28T05:06:59.685Z,16.90
2019-04-28T05:09:29.542Z,16.77
2019-04-28T05:11:59.746Z,17.77
2019-04-28T05:14:29.938Z,17.80
2019-04-28T05:17:00.662Z,19.37
2019-04-28T05:19:29.844Z,18.33
2019-04-28T05:22:00.066Z,22.33
2019-04-28T05:24:30.485Z,24.13
2019-04-28T05:26:59.669Z,18.77
2019-04-28T05:29:30.425Z,20.80
2019-04-28T05:31:59.822Z,20.47
2019-04-28T05:34:29.651Z,20.63
2019-04-28T05:37:00.546Z,22.47
2019-04-28T05:39:29.794Z,22.47
2019-04-28T05:42:00.639Z,21.40
2019-04-28T05:44:29.930Z,22.60
2019-04-28T05:46:59.580Z,21.83
2019-04-28T05:49:35.495Z,23.73
2019-04-28T05:52:21.960Z,21.17
2019-04-28T05:54:52.175Z,23.20
2019-04-28T05:57:37.134Z,24.13
2019-04-28T06:00:16.913Z,22.80
2019-04-28T06:02:55.929Z,24.53
2019-04-28T06:05:17.326Z,21.87
2019-04-28T06:07:56.430Z,21.70
2019-04-28T06:10:25.003Z,20.00
2019-04-28T06:12:53.569Z,21.93
2019-04-28T06:15:22.203Z,20.30
2019-04-28T06:17:50.771Z,24.50
2019-04-28T06:20:20.134Z,22.90
2019-04-28T06:22:49.023Z,23.53
2019-04-28T06:25:17.617Z,25.67
2019-04-28T06:27:46.161Z,24.97
2019-04-28T06:30:15.698Z,25.37
2019-04-28T06:32:44.253Z,23.87
2019-04-28T06:35:12.881Z,24.73
2019-04-28T06:37:41.512Z,22.67
2019-04-28T06:40:10.284Z,23.27
2019-04-28T06:42:38.854Z,24.10
2019-04-28T06:45:07.767Z,24.77
2019-04-28T06:47:36.323Z,24.87
2019-04-28T06:50:06.833Z,25.87
2019-04-28T06:52:35.445Z,23.30
2019-04-28T06:55:05.840Z,24.43
2019-04-28T06:57:34.394Z,26.43
2019-04-28T07:00:03.449Z,25.20
2019-04-28T07:02:51.348Z,22.67
2019-04-28T07:05:19.966Z,27.10
2019-04-28T07:07:48.592Z,22.37
2019-04-28T07:10:17.151Z,24.10
2019-04-28T07:12:45.753Z,23.13
2019-04-28T07:15:14.404Z,24.70
2019-04-28T07:17:42.974Z,24.90
2019-04-28T07:20:29.979Z,27.23
2019-04-28T07:22:58.636Z,24.70
2019-04-28T07:25:27.172Z,25.53
2019-04-28T07:27:55.767Z,25.77
2019-04-28T07:30:24.456Z,26.47
2019-04-28T07:32:53.032Z,25.27
2019-04-28T07:35:21.721Z,24.90
2019-04-28T07:37:50.274Z,26.53
2019-04-28T07:40:18.914Z,23.43
2019-04-28T07:42:47.624Z,27.20
2019-04-28T07:45:16.440Z,24.27
2019-04-28T07:47:45.072Z,23.27
2019-04-28T07:50:14.447Z,26.03
2019-04-28T07:52:44.715Z,25.80
2019-04-28T07:55:13.406Z,26.30
2019-04-28T07:57:42.006Z,24.13
2019-04-28T08:00:13.459Z,29.13
2019-04-28T08:02:42.018Z,27.67
2019-04-28T08:05:10.854Z,27.80
2019-04-28T08:07:39.437Z,26.63
2019-04-28T08:10:08.683Z,28.13
2019-04-28T08:12:37.287Z,26.63
2019-04-28T08:15:06.615Z,27.37
2019-04-28T08:17:35.172Z,27.87
2019-04-28T08:20:05.780Z,27.83
2019-04-28T08:22:34.490Z,31.33
2019-04-28T08:25:04.000Z,27.33
2019-04-28T08:27:33.174Z,27.57
2019-04-28T08:30:01.784Z,26.00
2019-04-28T08:32:31.977Z,26.53
2019-04-28T08:35:00.666Z,27.37
2019-04-28T08:37:29.237Z,27.20
2019-04-28T08:39:57.796Z,25.53
2019-04-28T08:42:26.441Z,25.13
2019-04-28T08:44:55.006Z,25.07
2019-04-28T08:47:23.636Z,27.87
2019-04-28T08:49:52.235Z,28.33
2019-04-28T08:52:20.814Z,29.17
2019-04-28T08:54:49.434Z,24.67
2019-04-28T08:57:18.258Z,26.37
2019-04-28T08:59:46.827Z,26.33
2019-04-28T09:02:15.395Z,24.70
2019-04-28T09:04:43.977Z,24.83
2019-04-28T09:07:12.622Z,24.57
2019-04-28T09:09:41.250Z,24.37
2019-04-28T09:12:10.445Z,27.43
2019-04-28T09:14:39.021Z,25.97
2019-04-28T09:17:07.592Z,30.00
2019-04-28T09:19:36.318Z,25.13
2019-04-28T09:22:05.714Z,26.13
2019-04-28T09:24:34.354Z,25.03
2019-04-28T09:27:02.998Z,24.80
2019-04-28T09:29:31.563Z,24.83
2019-04-28T09:32:00.184Z,27.37
2019-04-28T09:34:29.575Z,24.73
2019-04-28T09:36:58.145Z,26.80
2019-04-28T09:39:43.694Z,27.57
2019-04-28T09:42:31.786Z,25.70
2019-04-28T09:45:03.192Z,24.63
2019-04-28T09:47:31.771Z,25.40
2019-04-28T09:50:00.416Z,26.17
2019-04-28T09:52:29.059Z,27.13
2019-04-28T09:54:58.380Z,25.43
2019-04-28T09:57:26.939Z,24.03
2019-04-28T09:59:56.169Z,25.43
2019-04-28T10:02:24.815Z,27.50
2019-04-28T10:04:53.378Z,24.47
2019-04-28T10:07:22.330Z,28.47
2019-04-28T10:09:50.886Z,25.20
2019-04-28T10:12:26.893Z,26.23
2019-04-28T10:14:49.966Z,27.60
2019-04-28T10:17:47.996Z,30.30
2019-04-28T10:20:18.975Z,27.47
2019-04-28T10:22:47.608Z,29.60
2019-04-28T10:25:17.510Z,26.57
2019-04-28T10:27:46.793Z,28.93
2019-04-28T10:30:15.683Z,28.53
2019-04-28T10:32:44.308Z,29.37
2019-04-28T10:35:15.032Z,29.67
2019-04-28T10:37:45.581Z,31.00
2019-04-28T10:40:24.250Z,29.23
2019-04-28T10:42:52.806Z,27.87
2019-04-28T10:45:23.537Z,28.90
2019-04-28T10:47:52.101Z,27.70
2019-04-28T10:50:20.780Z,28.17
2019-04-28T10:52:49.345Z,28.40
2019-04-28T10:55:17.918Z,31.37
2019-04-28T10:57:46.531Z,30.50
2019-04-28T11:00:16.869Z,29.50
2019-04-28T11:02:45.460Z,31.30
2019-04-28T11:05:42.218Z,29.70
2019-04-28T11:08:13.370Z,30.40
2019-04-28T11:10:41.954Z,29.03
2019-04-28T11:13:10.956Z,29.77
2019-04-28T11:15:39.536Z,31.30
2019-04-28T11:18:10.166Z,28.83
2019-04-28T11:20:38.762Z,30.83
2019-04-28T11:23:07.489Z,30.00
2019-04-28T11:25:36.590Z,29.57
2019-04-28T11:28:05.996Z,30.13
2019-04-28T11:30:35.135Z,29.80
2019-04-28T11:33:08.226Z,29.70
2019-04-28T11:35:39.292Z,31.77
2019-04-28T11:38:07.928Z,30.53
2019-04-28T11:40:36.469Z,30.77
2019-04-28T11:43:05.127Z,33.03
2019-04-28T11:45:33.679Z,32.50
2019-04-28T11:48:02.316Z,32.50
2019-04-28T11:50:30.928Z,32.00
2019-04-28T11:52:59.508Z,33.03
2019-04-28T11:55:28.127Z,31.97
2019-04-28T11:57:57.126Z,31.97
2019-04-28T12:00:29.506Z,33.03
2019-04-28T12:02:57.850Z,31.93
2019-04-28T12:05:34.234Z,33.93
2019-04-28T12:07:58.361Z,32.43
2019-04-28T12:10:34.334Z,33.63
2019-04-28T12:13:10.410Z,30.43
2019-04-28T12:15:50.948Z,31.27
2019-04-28T12:18:37.565Z,31.93
2019-04-28T12:21:06.704Z,32.03
2019-04-28T12:23:35.267Z,32.90
2019-04-28T12:26:03.891Z,35.27
2019-04-28T12:28:32.654Z,30.60
2019-04-28T12:31:03.208Z,30.77
2019-04-28T12:33:31.497Z,29.73
2019-04-28T12:36:01.039Z,28.80
2019-04-28T12:38:29.690Z,28.90
2019-04-28T12:40:58.513Z,28.57
2019-04-28T12:43:27.627Z,24.97
2019-04-28T12:45:56.182Z,22.70
2019-04-28T12:48:24.761Z,22.00
2019-04-28T12:50:54.474Z,20.87
2019-04-28T12:53:23.915Z,21.00
2019-04-28T12:55:52.617Z,18.33
2019-04-28T12:58:21.196Z,19.20
2019-04-28T13:01:03.411Z,19.63
2019-04-28T13:03:33.838Z,16.93
2019-04-28T13:06:05.941Z,18.57
2019-04-28T13:08:34.248Z,18.10
2019-04-28T13:11:02.894Z,17.30
2019-04-28T13:13:31.499Z,16.03
2019-04-28T13:16:00.456Z,16.60
2019-04-28T13:18:29.034Z,17.13
2019-04-28T13:20:59.108Z,16.63
2019-04-28T13:23:28.243Z,16.77
2019-04-28T13:25:56.833Z,15.87
2019-04-28T13:28:26.234Z,15.43
2019-04-28T13:30:54.806Z,17.43
2019-04-28T13:33:23.363Z,15.90
2019-04-28T13:35:52.060Z,18.33
2019-04-28T13:38:20.643Z,17.63
2019-04-28T13:40:49.295Z,16.73
2019-04-28T13:43:17.911Z,16.10
2019-04-28T13:45:46.613Z,16.33
2019-04-28T13:48:15.174Z,18.20
2019-04-28T13:50:43.759Z,18.30
2019-04-28T13:53:12.318Z,19.77
2019-04-28T13:55:48.372Z,19.83
2019-04-28T13:58:18.705Z,21.53
2019-04-28T14:01:04.838Z,21.17
2019-04-28T14:03:37.841Z,21.47
2019-04-28T14:06:09.723Z,21.57
2019-04-28T14:08:38.312Z,20.00
2019-04-28T14:11:06.923Z,21.90
2019-04-28T14:13:35.562Z,20.17
2019-04-28T14:16:04.177Z,21.03
2019-04-28T14:18:32.773Z,21.80
2019-04-28T14:21:01.450Z,23.10
2019-04-28T14:23:30.006Z,22.30
2019-04-28T14:25:58.554Z,22.00
2019-04-28T14:28:27.154Z,21.80
2019-04-28T14:30:55.726Z,22.27
2019-04-28T14:33:24.353Z,22.07
2019-04-28T14:35:52.963Z,21.73
2019-04-28T14:38:21.517Z,21.17
2019-04-28T14:40:50.136Z,21.17
2019-04-28T14:43:18.791Z,20.70
2019-04-28T14:45:47.352Z,20.43
2019-04-28T14:48:15.995Z,22.63
2019-04-28T14:50:44.568Z,19.63
2019-04-28T14:53:13.214Z,19.73
2019-04-28T14:55:41.780Z,21.10
2019-04-28T14:58:10.448Z,20.13
2019-04-28T15:00:40.905Z,20.43
2019-04-28T15:03:11.653Z,21.00
2019-04-28T15:05:58.591Z,19.73
2019-04-28T15:08:40.807Z,21.03
2019-04-28T15:11:11.098Z,21.23
2019-04-28T15:13:39.668Z,20.60
2019-04-28T15:16:08.239Z,21.63
2019-04-28T15:18:36.870Z,18.60
2019-04-28T15:21:05.566Z,18.43
2019-04-28T15:23:34.142Z,20.30
2019-04-28T15:26:02.774Z,19.40
2019-04-28T15:28:31.329Z,21.27
2019-04-28T15:30:59.964Z,21.10
2019-04-28T15:33:29.343Z,17.40
2019-04-28T15:35:57.895Z,16.90
2019-04-28T15:38:26.490Z,20.20
2019-04-28T15:40:55.242Z,17.90
2019-04-28T15:43:23.804Z,16.70
2019-04-28T15:45:52.446Z,18.03
2019-04-28T15:48:21.111Z,16.77
2019-04-28T15:50:49.746Z,17.40
2019-04-28T15:53:18.293Z,18.17
2019-04-28T15:56:00.526Z,19.33
2019-04-28T15:58:29.555Z,18.43
2019-04-28T16:00:58.702Z,17.50
2019-04-28T16:03:27.926Z,16.50
2019-04-28T16:06:06.224Z,17.17
2019-04-28T16:08:34.968Z,16.93
2019-04-28T16:11:04.167Z,16.43
2019-04-28T16:13:32.731Z,14.60
2019-04-28T16:16:01.390Z,15.97
2019-04-28T16:18:30.007Z,17.70
2019-04-28T16:20:58.847Z,16.97
2019-04-28T16:23:27.473Z,17.33
2019-04-28T16:25:56.055Z,18.20
2019-04-28T16:28:24.675Z,15.80
2019-04-28T16:30:53.239Z,17.83
2019-04-28T16:33:21.872Z,17.80
2019-04-28T16:35:50.413Z,18.03
2019-04-28T16:38:18.961Z,16.63
2019-04-28T16:40:54.000Z,18.93
2019-04-28T16:43:28.511Z,19.33
2019-04-28T16:45:57.146Z,18.53
2019-04-28T16:48:25.712Z,17.93
2019-04-28T16:50:54.277Z,18.27
2019-04-28T16:53:23.176Z,17.93
2019-04-28T16:55:53.369Z,17.13
2019-04-28T16:58:35.473Z,17.67
2019-04-28T17:01:21.997Z,16.33
2019-04-28T17:03:50.835Z,16.17
2019-04-28T17:06:19.417Z,17.50
2019-04-28T17:08:48.013Z,16.43
2019-04-28T17:11:16.623Z,16.67
2019-04-28T17:13:45.203Z,17.77
2019-04-28T17:16:13.794Z,19.33
2019-04-28T17:18:42.418Z,18.27
2019-04-28T17:21:10.994Z,17.97
2019-04-28T17:23:39.571Z,18.30
2019-04-28T17:26:11.240Z,17.63
2019-04-28T17:28:38.818Z,20.20
2019-04-28T17:31:08.035Z,20.23
2019-04-28T17:33:37.258Z,19.43
2019-04-28T17:36:05.840Z,21.97
2019-04-28T17:38:34.485Z,20.20
2019-04-28T17:41:03.198Z,20.57
2019-04-28T17:43:31.764Z,22.40
2019-04-28T17:46:00.358Z,20.17
2019-04-28T17:48:33.487Z,24.30
2019-04-28T17:51:02.082Z,23.93
2019-04-28T17:53:30.643Z,20.57
2019-04-28T17:55:59.745Z,20.23
2019-04-28T17:58:28.322Z,24.57
2019-04-28T18:00:58.594Z,21.00
2019-04-28T18:03:34.879Z,21.43
2019-04-28T18:06:21.394Z,22.37
2019-04-28T18:08:50.302Z,21.07
2019-04-28T18:11:19.134Z,22.07
2019-04-28T18:13:47.695Z,21.90
2019-04-28T18:16:34.254Z,23.43
2019-04-28T18:19:07.471Z,21.50
2019-04-28T18:21:36.762Z,21.50
2019-04-28T18:24:05.398Z,22.60
2019-04-28T18:26:33.955Z,21.40
2019-04-28T18:29:02.755Z,21.33
2019-04-28T18:31:44.707Z,19.53
2019-04-28T18:34:17.707Z,20.83
2019-04-28T18:37:03.963Z,20.53
2019-04-28T18:39:43.002Z,18.00
2019-04-28T18:42:31.115Z,21.63
2019-04-28T18:44:59.706Z,22.13
2019-04-28T18:47:28.282Z,21.47
2019-04-28T18:49:56.846Z,22.10
2019-04-28T18:52:27.107Z,20.03
2019-04-28T18:54:55.913Z,21.23
2019-04-28T18:57:24.463Z,20.37
2019-04-28T18:59:53.121Z,19.07
2019-04-28T19:02:29.053Z,22.63
2019-04-28T19:04:57.698Z,22.00
2019-04-28T19:07:33.772Z,20.90
2019-04-28T19:10:07.020Z,21.73
2019-04-28T19:12:37.216Z,22.90
2019-04-28T19:15:24.004Z,22.50
2019-04-28T19:17:54.305Z,24.60
2019-04-28T19:20:22.877Z,24.23
2019-04-28T19:22:51.510Z,27.20
2019-04-28T19:25:20.076Z,23.80
2019-04-28T19:27:48.703Z,24.57
2019-04-28T19:30:17.350Z,23.93
2019-04-28T19:32:46.264Z,22.77
2019-04-28T19:35:14.837Z,25.13
2019-04-28T19:37:43.475Z,28.10
2019-04-28T19:40:12.310Z,25.77
2019-04-28T19:42:40.947Z,22.40
2019-04-28T19:45:12.111Z,24.27
2019-04-28T19:47:41.151Z,24.50
2019-04-28T19:50:10.054Z,25.33
2019-04-28T19:52:40.988Z,24.10
2019-04-28T19:55:10.618Z,23.20
2019-04-28T19:57:49.893Z,21.40
2019-04-28T20:00:27.181Z,24.40
2019-04-28T20:02:56.407Z,25.97
2019-04-28T20:05:25.036Z,23.77
2019-04-28T20:07:53.602Z,22.90
2019-04-28T20:10:22.431Z,24.03
2019-04-28T20:12:51.044Z,23.33
2019-04-28T20:15:19.659Z,26.07
2019-04-28T20:17:48.791Z,25.77
2019-04-28T20:20:17.480Z,22.53
2019-04-28T20:22:46.078Z,23.83
2019-04-28T20:25:14.736Z,25.00
2019-04-28T20:27:43.343Z,23.73
2019-04-28T20:30:12.679Z,23.70
2019-04-28T20:32:46.077Z,23.63
2019-04-28T20:35:17.612Z,27.33
2019-04-28T20:37:57.194Z,22.53
2019-04-28T20:40:30.153Z,21.63
2019-04-28T20:43:02.016Z,19.40
2019-04-28T20:45:30.699Z,17.30
2019-04-28T20:47:59.338Z,17.00
2019-04-28T20:50:28.016Z,15.93
2019-04-28T20:52:56.599Z,19.13
2019-04-28T20:55:25.152Z,15.47
2019-04-28T20:57:54.122Z,15.50
2019-04-28T21:00:22.690Z,16.10
2019-04-28T21:02:51.253Z,18.07
2019-04-28T21:05:39.519Z,17.10
2019-04-28T21:08:08.075Z,17.40
2019-04-28T21:10:38.298Z,15.80
2019-04-28T21:13:07.126Z,14.17
2019-04-28T21:15:35.685Z,14.27
2019-04-28T21:18:04.409Z,13.10
2019-04-28T21:20:33.104Z,15.20
2019-04-28T21:23:01.738Z,20.83
2019-04-28T21:25:30.374Z,18.53
2019-04-28T21:27:58.980Z,14.60
2019-04-28T21:30:27.533Z,14.30
2019-04-28T21:32:56.091Z,15.53
2019-04-28T21:35:24.990Z,15.40
2019-04-28T21:37:53.626Z,14.20
2019-04-28T21:40:22.695Z,15.07
2019-04-28T21:42:53.001Z,14.93
2019-04-28T21:45:39.563Z,15.37
2019-04-28T21:48:08.302Z,14.07
2019-04-28T21:50:36.866Z,16.07
2019-04-28T21:53:05.427Z,16.50
2019-04-28T21:55:34.083Z,14.20
2019-04-28T21:58:02.647Z,13.77
2019-04-28T22:00:41.840Z,15.67
2019-04-28T22:03:10.409Z,13.77
2019-04-28T22:05:38.990Z,14.70
2019-04-28T22:08:07.588Z,14.90
2019-04-28T22:10:36.189Z,13.23
2019-04-28T22:13:04.757Z,14.03
2019-04-28T22:15:33.428Z,13.43
2019-04-28T22:18:02.007Z,14.30
2019-04-28T22:20:30.627Z,13.97
2019-04-28T22:23:00.905Z,16.03
2019-04-28T22:25:29.473Z,16.83
2019-04-28T22:27:58.059Z,15.47
2019-04-28T22:30:26.660Z,15.27
2019-04-28T22:32:55.237Z,16.93
2019-04-28T22:35:23.829Z,15.03
2019-04-28T22:37:52.397Z,16.63
2019-04-28T22:40:20.973Z,15.17
2019-04-28T22:42:49.598Z,16.10
2019-04-28T22:45:18.621Z,15.37
2019-04-28T22:47:47.185Z,13.23
2019-04-28T22:50:40.084Z,15.20
2019-04-28T22:53:08.721Z,14.57
2019-04-28T22:55:38.929Z,15.30
2019-04-28T22:58:15.137Z,16.00
2019-04-28T23:00:47.921Z,14.03
2019-04-28T23:03:18.245Z,14.30
2019-04-28T23:05:46.820Z,13.87
2019-04-28T23:08:15.397Z,16.63
2019-04-28T23:10:44.052Z,14.80
2019-04-28T23:13:12.698Z,16.63
2019-04-28T23:15:41.634Z,15.53
2019-04-28T23:18:10.281Z,15.30
2019-04-28T23:20:40.497Z,17.20
2019-04-28T23:23:10.355Z,14.17
2019-04-28T23:25:38.934Z,18.07
2019-04-28T23:28:07.520Z,16.50
2019-04-28T23:30:39.320Z,16.57
2019-04-28T23:33:07.903Z,15.40
2019-04-28T23:35:36.555Z,15.47
2019-04-28T23:38:05.284Z,13.77
2019-04-28T23:40:35.946Z,16.93
2019-04-28T23:43:07.120Z,17.00
2019-04-28T23:45:35.948Z,15.97
2019-04-28T23:48:04.717Z,15.60
2019-04-28T23:50:51.165Z,14.67
2019-04-28T23:53:21.412Z,15.27
2019-04-28T23:55:50.173Z,16.37
2019-04-28T23:58:18.740Z,13.80
